createdAt,value
2018-07-08T00:01:45.437Z,9.53
2018-07-08T00:04:19.370Z,11.37
2018-07-08T00:06:47.467Z,9.67
2018-07-08T00:09:15.619Z,11.40
2018-07-08T00:11:43.671Z,8.60
2018-07-08T00:14:11.733Z,12.00
2018-07-08T00:16:49.427Z,14.40
2018-07-08T00:19:20.901Z,13.67
2018-07-08T00:21:48.973Z,7.83
2018-07-08T00:24:20.845Z,9.93
2018-07-08T00:26:49.777Z,9.93
2018-07-08T00:29:19.786Z,8.90
2018-07-08T00:31:47.849Z,11.73
2018-07-08T00:34:15.903Z,8.70
2018-07-08T00:36:43.974Z,9.30
2018-07-08T00:39:12.028Z,13.23
2018-07-08T00:41:39.922Z,11.47
2018-07-08T00:44:08.636Z,15.47
2018-07-08T00:46:36.670Z,14.70
2018-07-08T00:49:05.073Z,11.40
2018-07-08T00:51:33.179Z,13.50
2018-07-08T00:54:09.417Z,8.87
2018-07-08T00:56:37.464Z,10.60
2018-07-08T00:59:05.505Z,11.93
2018-07-08T01:01:34.067Z,9.90
2018-07-08T01:04:02.466Z,9.57
2018-07-08T01:06:38.885Z,14.27
2018-07-08T01:09:07.446Z,12.17
2018-07-08T01:11:35.505Z,14.23
2018-07-08T01:14:03.543Z,17.57
2018-07-08T01:16:39.147Z,11.33
2018-07-08T01:25:05.581Z,12.80
2018-07-08T01:27:40.134Z,10.83
2018-07-08T01:30:08.682Z,9.90
2018-07-08T01:32:37.290Z,8.90
2018-07-08T01:35:10.939Z,13.47
2018-07-08T01:37:39.170Z,14.00
2018-07-08T01:40:07.442Z,11.87
2018-07-08T01:42:35.292Z,13.60
2018-07-08T01:45:09.215Z,9.30
2018-07-08T01:47:40.560Z,11.13
2018-07-08T01:50:09.705Z,16.23
2018-07-08T01:52:37.765Z,12.30
2018-07-08T01:55:05.925Z,10.60
2018-07-08T01:57:34.386Z,14.80
2018-07-08T02:00:08.559Z,14.23
2018-07-08T02:02:36.602Z,8.80
2018-07-08T02:05:10.215Z,13.00
2018-07-08T02:07:38.298Z,10.17
2018-07-08T02:10:06.345Z,12.93
2018-07-08T02:12:34.395Z,13.03
2018-07-08T02:15:08.613Z,10.43
2018-07-08T02:17:39.943Z,13.10
2018-07-08T02:20:08.345Z,11.50
2018-07-08T02:22:36.407Z,11.97
2018-07-08T02:25:10.250Z,10.57
2018-07-08T02:27:39.474Z,14.87
2018-07-08T02:30:09.238Z,13.83
2018-07-08T02:32:37.831Z,16.03
2018-07-08T02:35:06.408Z,12.07
2018-07-08T02:37:34.430Z,13.20
2018-07-08T02:40:08.690Z,13.23
2018-07-08T02:42:36.806Z,14.30
2018-07-08T02:45:05.206Z,13.90
2018-07-08T02:47:33.730Z,15.93
2018-07-08T02:50:01.921Z,11.30
2018-07-08T02:52:40.454Z,11.53
2018-07-08T02:55:08.513Z,15.57
2018-07-08T02:57:36.549Z,12.57
2018-07-08T03:00:05.010Z,14.37
2018-07-08T03:02:39.318Z,14.87
2018-07-08T03:05:08.070Z,11.53
2018-07-08T03:07:39.245Z,14.10
2018-07-08T03:10:07.539Z,15.77
2018-07-08T03:12:39.305Z,12.63
2018-07-08T03:15:07.353Z,14.03
2018-07-08T03:17:40.999Z,18.80
2018-07-08T03:20:09.374Z,14.17
2018-07-08T03:22:38.647Z,10.63
2018-07-08T03:25:07.618Z,14.73
2018-07-08T03:27:39.490Z,13.70
2018-07-08T03:30:07.586Z,9.90
2018-07-08T03:32:36.232Z,14.53
2018-07-08T03:35:05.110Z,17.73
2018-07-08T03:37:39.313Z,14.10
2018-07-08T03:40:12.334Z,13.13
2018-07-08T03:42:48.712Z,12.37
2018-07-08T03:45:20.515Z,14.43
2018-07-08T03:47:50.749Z,10.43
2018-07-08T03:50:19.553Z,15.63
2018-07-08T03:52:49.463Z,13.40
2018-07-08T03:55:18.348Z,18.70
2018-07-08T03:57:47.780Z,17.90
2018-07-08T04:00:16.118Z,9.60
2018-07-08T04:02:44.635Z,10.63
2018-07-08T04:05:20.012Z,16.00
2018-07-08T04:07:48.562Z,13.83
2018-07-08T04:10:16.683Z,12.67
2018-07-08T04:12:52.957Z,19.83
2018-07-08T04:15:28.617Z,14.17
2018-07-08T04:18:02.897Z,13.07
2018-07-08T04:20:31.022Z,16.73
2018-07-08T04:23:09.598Z,11.20
2018-07-08T04:25:38.242Z,14.53
2018-07-08T04:28:08.019Z,11.37
2018-07-08T04:30:39.858Z,21.67
2018-07-08T04:33:07.925Z,12.87
2018-07-08T04:35:40.469Z,11.10
2018-07-08T04:38:08.562Z,13.33
2018-07-08T04:40:40.389Z,14.67
2018-07-08T04:43:08.475Z,18.63
2018-07-08T04:48:18.874Z,12.50
2018-07-08T04:50:50.289Z,11.50
2018-07-08T04:53:19.430Z,13.83
2018-07-08T04:55:47.491Z,9.70
2018-07-08T04:58:21.475Z,13.80
2018-07-08T05:01:01.620Z,12.60
2018-07-08T05:03:39.166Z,10.50
2018-07-08T05:06:07.289Z,13.47
2018-07-08T05:08:43.187Z,16.30
2018-07-08T05:11:18.869Z,14.57
2018-07-08T05:13:50.103Z,12.03
2018-07-08T05:16:18.808Z,13.27
2018-07-08T05:18:50.646Z,9.33
2018-07-08T05:21:19.573Z,13.93
2018-07-08T05:23:47.749Z,13.20
2018-07-08T05:26:15.806Z,14.87
2018-07-08T05:28:50.514Z,16.00
2018-07-08T05:31:18.605Z,12.43
2018-07-08T05:33:50.398Z,14.33
2018-07-08T05:36:18.975Z,14.03
2018-07-08T05:38:50.063Z,19.37
2018-07-08T05:41:18.162Z,14.63
2018-07-08T05:43:46.262Z,14.03
2018-07-08T05:46:14.347Z,15.87
2018-07-08T05:48:49.222Z,13.77
2018-07-08T05:51:17.809Z,14.73
2018-07-08T05:53:45.903Z,10.70
2018-07-08T05:56:21.238Z,13.87
2018-07-08T05:59:00.973Z,9.10
2018-07-08T06:01:29.069Z,10.67
2018-07-08T06:03:57.172Z,11.10
2018-07-08T06:06:25.302Z,13.40
2018-07-08T06:08:53.695Z,15.00
2018-07-08T06:11:22.726Z,15.00
2018-07-08T06:13:50.914Z,12.33
2018-07-08T06:16:19.699Z,12.83
2018-07-08T06:18:49.350Z,13.90
2018-07-08T06:21:17.255Z,10.60
2018-07-08T06:23:52.815Z,13.97
2018-07-08T06:26:28.811Z,13.17
2018-07-08T06:29:00.240Z,16.13
2018-07-08T06:31:28.642Z,16.43
2018-07-08T06:34:00.274Z,13.37
2018-07-08T06:36:31.782Z,18.87
2018-07-08T06:39:02.662Z,14.57
2018-07-08T06:41:30.780Z,14.90
2018-07-08T06:43:59.670Z,13.77
2018-07-08T06:46:27.789Z,12.77
2018-07-08T06:48:59.512Z,17.80
2018-07-08T06:51:29.839Z,14.53
2018-07-08T06:53:57.929Z,18.30
2018-07-08T06:56:26.118Z,17.20
2018-07-08T06:58:57.975Z,14.80
2018-07-08T07:01:29.237Z,10.57
2018-07-08T07:03:57.396Z,14.27
2018-07-08T07:06:29.466Z,13.03
2018-07-08T07:08:59.242Z,13.37
2018-07-08T07:11:27.396Z,15.40
2018-07-08T07:13:55.593Z,14.80
2018-07-08T07:16:29.830Z,13.40
2018-07-08T07:19:01.128Z,15.13
2018-07-08T07:21:31.127Z,18.20
2018-07-08T07:24:09.285Z,14.47
2018-07-08T07:26:38.213Z,15.27
2018-07-08T07:29:07.071Z,15.37
2018-07-08T07:31:35.900Z,13.27
2018-07-08T07:34:10.321Z,10.20
2018-07-08T07:36:39.078Z,12.00
2018-07-08T07:39:10.599Z,14.10
2018-07-08T07:41:39.283Z,14.67
2018-07-08T07:44:07.430Z,13.17
2018-07-08T07:46:41.413Z,16.53
2018-07-08T07:49:19.234Z,13.00
2018-07-08T07:51:49.391Z,12.23
2018-07-08T07:54:20.034Z,14.10
2018-07-08T07:56:48.168Z,12.30
2018-07-08T07:59:16.312Z,14.03
2018-07-08T08:01:44.471Z,13.17
2018-07-08T08:04:19.412Z,19.47
2018-07-08T08:06:48.182Z,12.50
2018-07-08T08:09:16.291Z,13.27
2018-07-08T08:11:44.486Z,13.13
2018-07-08T08:14:12.714Z,15.10
2018-07-08T08:16:50.489Z,13.53
2018-07-08T08:19:18.810Z,15.30
2018-07-08T08:21:47.346Z,16.62
2018-07-08T08:24:21.647Z,14.55
2018-07-08T08:26:59.463Z,14.60
2018-07-08T08:29:27.654Z,14.53
2018-07-08T08:32:01.538Z,10.32
2018-07-08T08:35:04.618Z,12.53
2018-07-08T08:37:45.774Z,15.13
2018-07-08T08:40:14.758Z,11.78
2018-07-08T08:42:42.916Z,12.13
2018-07-08T08:45:21.577Z,11.53
2018-07-08T08:47:59.525Z,12.13
2018-07-08T08:50:27.686Z,13.43
2018-07-08T08:52:55.947Z,10.28
2018-07-08T08:55:24.774Z,9.58
2018-07-08T08:57:53.040Z,9.98
2018-07-08T09:00:28.490Z,9.93
2018-07-08T09:02:56.682Z,11.10
2018-07-08T09:05:25.377Z,9.58
2018-07-08T09:07:53.457Z,11.25
2018-07-08T09:10:29.401Z,8.23
2018-07-08T09:12:57.495Z,10.40
2018-07-08T09:15:25.522Z,14.63
2018-07-08T09:17:59.816Z,7.45
2018-07-08T09:20:27.887Z,10.60
2018-07-08T09:22:55.957Z,12.45
2018-07-08T09:25:30.405Z,9.68
2018-07-08T09:27:58.442Z,8.23
2018-07-08T09:30:30.360Z,12.05
2018-07-08T09:33:00.757Z,11.18
2018-07-08T09:35:28.909Z,7.10
2018-07-08T09:38:01.242Z,9.10
2018-07-08T09:40:39.226Z,9.40
2018-07-08T09:43:07.354Z,9.90
2018-07-08T09:45:35.860Z,9.20
2018-07-08T09:48:10.532Z,8.60
2018-07-08T09:50:38.818Z,9.53
2018-07-08T09:53:10.963Z,11.55
2018-07-08T09:55:39.143Z,6.58
2018-07-08T09:58:10.808Z,8.83
2018-07-08T10:00:39.853Z,9.10
2018-07-08T10:03:08.180Z,7.35
2018-07-08T10:05:36.384Z,8.33
2018-07-08T10:08:10.457Z,9.78
2018-07-08T10:10:38.852Z,8.93
2018-07-08T10:13:10.806Z,9.85
2018-07-08T10:15:39.676Z,9.10
2018-07-08T10:18:11.522Z,9.55
2018-07-08T10:20:49.470Z,7.92
2018-07-08T10:23:17.855Z,9.75
2018-07-08T10:25:46.119Z,7.75
2018-07-08T10:28:17.607Z,9.65
2018-07-08T10:30:51.682Z,9.43
2018-07-08T10:33:19.979Z,11.33
2018-07-08T10:36:03.565Z,10.08
2018-07-08T10:38:32.816Z,8.15
2018-07-08T10:41:00.993Z,9.20
2018-07-08T10:43:29.598Z,9.85
2018-07-08T10:45:57.794Z,11.50
2018-07-08T10:48:31.675Z,9.63
2018-07-08T10:51:09.800Z,11.18
2018-07-08T10:53:38.223Z,6.87
2018-07-08T10:56:06.808Z,7.47
2018-07-08T10:58:34.987Z,8.10
2018-07-08T11:01:10.107Z,8.50
2018-07-08T11:03:38.317Z,9.38
2018-07-08T11:06:06.470Z,6.70
2018-07-08T11:08:34.907Z,9.15
2018-07-08T11:11:09.598Z,6.83
2018-07-08T11:13:41.167Z,5.75
2018-07-08T11:16:09.373Z,8.40
2018-07-08T11:18:41.177Z,6.83
2018-07-08T11:21:10.050Z,10.35
2018-07-08T11:23:38.706Z,9.40
2018-07-08T11:26:10.351Z,8.90
2018-07-08T11:28:40.356Z,5.58
2018-07-08T11:31:08.938Z,6.20
2018-07-08T11:33:37.827Z,6.60
2018-07-08T11:36:06.298Z,7.60
2018-07-08T11:38:34.557Z,8.55
2018-07-08T11:41:09.865Z,7.67
2018-07-08T11:43:38.131Z,8.15
2018-07-08T11:46:06.207Z,8.85
2018-07-08T11:48:40.052Z,9.20
2018-07-08T11:51:08.246Z,7.62
2018-07-08T11:53:36.465Z,8.48
2018-07-08T11:56:04.635Z,8.35
2018-07-08T11:58:39.822Z,9.40
2018-07-08T12:01:09.879Z,11.43
2018-07-08T12:03:39.992Z,7.67
2018-07-08T12:06:09.644Z,7.65
2018-07-08T12:08:37.839Z,7.37
2018-07-08T12:11:06.541Z,8.78
2018-07-08T12:13:35.260Z,7.12
2018-07-08T12:16:09.613Z,8.48
2018-07-08T12:18:37.986Z,7.60
2018-07-08T12:21:06.327Z,5.97
2018-07-08T12:23:38.047Z,8.40
2018-07-08T12:26:06.138Z,7.95
2018-07-08T12:28:34.828Z,5.33
2018-07-08T12:31:09.826Z,7.75
2018-07-08T12:33:38.209Z,8.48
2018-07-08T12:36:06.650Z,6.75
2018-07-08T12:38:34.875Z,9.40
2018-07-08T12:41:03.120Z,8.03
2018-07-08T12:43:31.450Z,7.28
2018-07-08T12:45:59.561Z,7.95
2018-07-08T12:48:27.776Z,11.30
2018-07-08T12:50:55.987Z,8.20
2018-07-08T12:53:24.193Z,7.45
2018-07-08T12:55:52.469Z,7.03
2018-07-08T12:58:20.615Z,6.47
2018-07-08T13:00:48.863Z,7.03
2018-07-08T13:03:20.505Z,7.15
2018-07-08T13:05:50.498Z,8.28
2018-07-08T13:08:18.694Z,7.60
2018-07-08T13:10:47.115Z,7.95
2018-07-08T13:13:15.297Z,7.55
2018-07-08T13:15:49.496Z,6.95
2018-07-08T13:18:18.021Z,4.92
2018-07-08T13:20:46.215Z,8.73
2018-07-08T13:23:14.156Z,6.62
2018-07-08T13:25:42.815Z,7.15
2018-07-08T13:28:11.096Z,7.17
2018-07-08T13:30:39.406Z,6.10
2018-07-08T13:33:07.539Z,8.05
2018-07-08T13:35:35.853Z,7.62
2018-07-08T13:38:04.127Z,5.97
2018-07-08T13:40:39.080Z,8.95
2018-07-08T13:43:07.682Z,6.58
2018-07-08T13:45:35.831Z,8.20
2018-07-08T13:48:04.128Z,9.30
2018-07-08T13:50:32.326Z,6.95
2018-07-08T13:53:11.107Z,6.05
2018-07-08T13:55:39.374Z,8.08
2018-07-08T13:58:07.634Z,8.13
2018-07-08T14:00:36.479Z,7.87
2018-07-08T14:03:04.650Z,6.42
2018-07-08T14:05:40.720Z,9.70
2018-07-08T14:08:08.850Z,10.20
2018-07-08T14:10:37.398Z,6.55
2018-07-08T14:13:06.283Z,7.33
2018-07-08T14:15:42.215Z,5.30
2018-07-08T14:18:10.334Z,8.75
2018-07-08T14:20:38.442Z,6.85
2018-07-08T14:23:06.505Z,8.33
2018-07-08T14:25:35.314Z,7.67
2018-07-08T14:28:03.346Z,14.60
2018-07-08T14:30:39.835Z,7.85
2018-07-08T14:33:08.111Z,5.20
2018-07-08T14:35:36.266Z,5.53
2018-07-08T14:38:10.671Z,6.42
2018-07-08T14:40:40.515Z,7.62
2018-07-08T14:43:10.082Z,7.42
2018-07-08T14:45:38.196Z,6.55
2018-07-08T14:48:12.065Z,6.83
2018-07-08T14:50:40.154Z,6.97
2018-07-08T14:53:08.255Z,7.10
2018-07-08T14:55:39.759Z,8.03
2018-07-08T14:58:08.136Z,8.40
2018-07-08T15:00:36.384Z,5.62
2018-07-08T15:03:04.539Z,7.72
2018-07-08T15:05:33.393Z,4.33
2018-07-08T15:08:10.503Z,7.47
2018-07-08T15:10:39.351Z,6.40
2018-07-08T15:13:07.606Z,4.90
2018-07-08T15:15:35.947Z,6.95
2018-07-08T15:18:04.241Z,7.87
2018-07-08T15:20:32.289Z,6.47
2018-07-08T15:23:00.758Z,5.42
2018-07-08T15:25:30.008Z,9.05
2018-07-08T15:27:58.215Z,4.90
2018-07-08T15:30:26.473Z,6.33
2018-07-08T15:32:54.694Z,6.37
2018-07-08T15:35:29.609Z,5.37
2018-07-08T15:37:58.072Z,5.05
2018-07-08T15:40:26.530Z,6.45
2018-07-08T15:43:00.784Z,6.15
2018-07-08T15:45:30.734Z,5.28
2018-07-08T15:48:00.304Z,11.25
2018-07-08T15:50:28.583Z,7.62
2018-07-08T15:52:59.990Z,5.28
2018-07-08T15:55:30.164Z,5.85
2018-07-08T15:58:00.056Z,6.00
2018-07-08T16:00:28.787Z,5.70
2018-07-08T16:03:00.543Z,7.53
2018-07-08T16:05:30.711Z,6.95
2018-07-08T16:07:59.099Z,6.67
2018-07-08T16:10:27.226Z,4.60
2018-07-08T16:12:55.418Z,7.33
2018-07-08T16:15:24.204Z,5.80
2018-07-08T16:17:59.293Z,6.35
2018-07-08T16:20:27.498Z,8.30
2018-07-08T16:22:55.674Z,6.78
2018-07-08T16:25:29.376Z,7.08
2018-07-08T16:27:57.650Z,7.30
2018-07-08T16:30:25.969Z,6.70
2018-07-08T16:33:00.091Z,6.92
2018-07-08T16:35:31.250Z,8.15
2018-07-08T16:37:59.345Z,9.78
2018-07-08T16:40:27.664Z,5.95
2018-07-08T16:42:55.621Z,6.35
2018-07-08T16:45:29.840Z,9.08
2018-07-08T16:47:57.998Z,9.50
2018-07-08T16:50:26.546Z,7.37
2018-07-08T16:53:00.383Z,8.75
2018-07-08T16:55:28.529Z,7.70
2018-07-08T16:57:59.830Z,7.65
2018-07-08T17:00:29.821Z,6.92
2018-07-08T17:02:58.292Z,7.62
2018-07-08T17:05:26.457Z,6.50
2018-07-08T17:07:54.639Z,8.70
2018-07-08T17:10:23.190Z,6.30
2018-07-08T17:12:51.395Z,7.70
2018-07-08T17:15:20.341Z,5.10
2018-07-08T17:17:51.632Z,6.03
2018-07-08T17:20:19.934Z,8.70
2018-07-08T17:22:48.663Z,6.22
2018-07-08T17:25:16.773Z,6.17
2018-07-08T17:27:45.324Z,7.37
2018-07-08T17:30:13.726Z,9.90
2018-07-08T17:32:42.073Z,5.42
2018-07-08T17:35:19.960Z,4.80
2018-07-08T17:37:48.791Z,4.80
2018-07-08T17:40:16.916Z,8.48
2018-07-08T17:42:45.157Z,5.83
2018-07-08T17:45:13.241Z,7.40
2018-07-08T17:47:49.715Z,8.20
2018-07-08T17:50:20.887Z,8.38
2018-07-08T17:52:49.057Z,5.60
2018-07-08T17:55:20.827Z,5.83
2018-07-08T17:57:48.961Z,9.68
2018-07-08T18:00:17.128Z,7.25
2018-07-08T18:02:45.414Z,5.92
2018-07-08T18:05:20.301Z,6.90
2018-07-08T18:07:48.495Z,7.35
2018-07-08T18:10:16.651Z,4.35
2018-07-08T18:12:45.417Z,8.48
2018-07-08T18:15:13.637Z,7.97
2018-07-08T18:17:42.403Z,5.92
2018-07-08T18:20:20.835Z,6.58
2018-07-08T18:22:49.041Z,7.22
2018-07-08T18:25:17.254Z,6.97
2018-07-08T18:27:45.876Z,6.95
2018-07-08T18:30:20.132Z,7.87
2018-07-08T18:32:52.380Z,8.73
2018-07-08T18:35:20.630Z,7.95
2018-07-08T18:37:48.782Z,6.75
2018-07-08T18:40:16.903Z,8.88
2018-07-08T18:42:45.074Z,5.35
2018-07-08T18:45:13.236Z,6.15
2018-07-08T18:47:49.781Z,9.10
2018-07-08T18:50:17.867Z,7.20
2018-07-08T18:52:46.066Z,8.08
2018-07-08T18:55:14.218Z,6.28
2018-07-08T18:57:42.409Z,5.33
2018-07-08T19:00:10.507Z,11.93
2018-07-08T19:02:41.888Z,7.80
2018-07-08T19:05:10.196Z,6.03
2018-07-08T19:07:38.334Z,8.98
2018-07-08T19:10:10.175Z,11.00
2018-07-08T19:12:40.873Z,7.50
2018-07-08T19:15:08.987Z,5.15
2018-07-08T19:17:36.908Z,8.40
2018-07-08T19:20:11.147Z,7.45
2018-07-08T19:22:39.331Z,12.50
2018-07-08T19:25:07.790Z,6.77
2018-07-08T19:27:36.078Z,6.53
2018-07-08T19:30:04.393Z,6.10
2018-07-08T19:32:40.339Z,8.00
2018-07-08T19:35:08.820Z,10.40
2018-07-08T19:37:36.937Z,6.97
2018-07-08T19:40:11.419Z,6.67
2018-07-08T19:42:39.614Z,8.47
2018-07-08T19:45:11.254Z,7.07
2018-07-08T19:47:40.393Z,8.27
2018-07-08T19:50:08.631Z,8.87
2018-07-08T19:52:40.630Z,7.40
2018-07-08T19:55:08.708Z,6.07
2018-07-08T19:57:36.893Z,5.97
2018-07-08T20:00:10.884Z,8.60
2018-07-08T20:02:40.140Z,6.67
2018-07-08T20:05:08.289Z,6.93
2018-07-08T20:07:39.939Z,10.97
2018-07-08T20:10:08.011Z,5.87
2018-07-08T20:12:36.104Z,6.63
2018-07-08T20:15:04.204Z,6.50
2018-07-08T20:17:40.217Z,6.77
2018-07-08T20:20:09.238Z,6.97
2018-07-08T20:22:37.311Z,10.13
2018-07-08T20:25:05.497Z,7.20
2018-07-08T20:27:40.232Z,8.83
2018-07-08T20:30:10.237Z,5.60
2018-07-08T20:32:38.524Z,7.23
2018-07-08T20:35:12.111Z,5.50
2018-07-08T20:37:49.974Z,7.33
2018-07-08T20:40:18.093Z,7.20
2018-07-08T20:42:46.169Z,5.87
2018-07-08T20:45:20.086Z,10.03
2018-07-08T20:47:48.152Z,8.33
2018-07-08T20:50:16.908Z,8.83
2018-07-08T20:52:50.991Z,5.87
2018-07-08T20:55:19.166Z,5.80
2018-07-08T20:57:47.425Z,10.87
2018-07-08T21:00:21.724Z,9.13
2018-07-08T21:02:49.780Z,5.67
2018-07-08T21:05:22.002Z,10.90
2018-07-08T21:07:59.582Z,6.50
2018-07-08T21:10:27.713Z,10.13
2018-07-08T21:12:55.804Z,10.67
2018-07-08T21:15:30.076Z,9.90
2018-07-08T21:17:58.126Z,9.80
2018-07-08T21:20:31.856Z,9.97
2018-07-08T21:23:09.775Z,6.87
2018-07-08T21:25:41.063Z,9.10
2018-07-08T21:28:09.146Z,11.87
2018-07-08T21:30:37.258Z,9.80
2018-07-08T21:33:05.301Z,12.53
2018-07-08T21:35:33.381Z,9.87
2018-07-08T21:38:09.573Z,10.83
2018-07-08T21:40:37.671Z,12.47
2018-07-08T21:43:11.434Z,13.40
2018-07-08T21:45:39.502Z,9.37
2018-07-08T21:48:11.277Z,13.53
2018-07-08T21:50:39.363Z,14.10
2018-07-08T21:53:11.020Z,9.93
2018-07-08T21:55:39.613Z,9.43
2018-07-08T21:58:11.329Z,9.23
2018-07-08T22:00:49.322Z,10.87
2018-07-08T22:03:17.378Z,10.70
2018-07-08T22:08:41.327Z,13.93
2018-07-08T22:11:09.927Z,10.50
2018-07-08T22:13:42.213Z,12.97
2018-07-08T22:16:20.715Z,12.07
2018-07-08T22:18:50.506Z,12.63
2018-07-08T22:21:18.554Z,9.70
2018-07-08T22:23:46.621Z,8.80
2018-07-08T22:26:14.820Z,8.37
2018-07-08T22:28:42.898Z,8.37
2018-07-08T22:31:21.474Z,8.60
2018-07-08T22:33:49.534Z,8.47
2018-07-08T22:36:17.965Z,12.20
2018-07-08T22:38:51.913Z,8.33
2018-07-08T22:41:30.115Z,14.30
2018-07-08T22:43:58.175Z,8.70
2018-07-08T22:46:26.243Z,10.83
2018-07-08T22:48:54.300Z,8.60
2018-07-08T22:51:30.490Z,7.67
2018-07-08T22:53:58.521Z,8.30
2018-07-08T22:56:26.842Z,10.37
2018-07-08T22:59:00.549Z,10.23
2018-07-08T23:01:34.504Z,10.77
2018-07-08T23:04:10.289Z,8.73
2018-07-08T23:06:38.329Z,9.73
2018-07-08T23:09:12.248Z,11.27
2018-07-08T23:11:40.320Z,9.33
2018-07-08T23:14:08.387Z,8.47
2018-07-08T23:16:36.422Z,11.77
2018-07-08T23:19:04.465Z,11.77
2018-07-08T23:21:32.558Z,8.30
2018-07-08T23:24:10.738Z,9.33
2018-07-08T23:26:39.041Z,10.93
2018-07-08T23:29:07.069Z,9.83
2018-07-08T23:31:35.383Z,13.13
2018-07-08T23:34:10.213Z,9.97
2018-07-08T23:36:38.911Z,11.60
2018-07-08T23:39:10.813Z,10.53
2018-07-08T23:41:41.587Z,13.53
2018-07-08T23:46:45.590Z,6.73
2018-07-08T23:49:14.167Z,9.17
2018-07-08T23:51:42.247Z,13.97
2018-07-08T23:54:22.732Z,10.77
2018-07-08T23:56:51.048Z,10.57
2018-07-08T23:59:20.757Z,10.33
